sensor_id;sensor_type;location;lat;lon;timestamp;P1;durP1;ratioP1;P2;durP2;ratioP2
2750;SDS011;1383;48.362;10.908;2023-04-25T00:01:54;4.33;;;3.60;;
2750;SDS011;1383;48.362;10.908;2023-04-25T00:04:22;5.53;;;3.70;;
2750;SDS011;1383;48.362;10.908;2023-04-25T00:06:50;3.60;;;3.30;;
2750;SDS011;1383;48.362;10.908;2023-04-25T00:09:18;8.03;;;2.80;;
2750;SDS011;1383;48.362;10.908;2023-04-25T00:11:45;4.87;;;4.37;;
2750;SDS011;1383;48.362;10.908;2023-04-25T00:14:12;4.00;;;3.33;;
2750;SDS011;1383;48.362;10.908;2023-04-25T00:16:39;4.37;;;3.40;;
2750;SDS011;1383;48.362;10.908;2023-04-25T00:19:07;3.90;;;3.50;;
2750;SDS011;1383;48.362;10.908;2023-04-25T00:21:36;5.47;;;4.47;;
2750;SDS011;1383;48.362;10.908;2023-04-25T00:24:07;5.63;;;3.40;;
2750;SDS011;1383;48.362;10.908;2023-04-25T00:26:34;6.23;;;4.13;;
2750;SDS011;1383;48.362;10.908;2023-04-25T00:29:02;7.33;;;4.13;;
2750;SDS011;1383;48.362;10.908;2023-04-25T00:31:29;4.83;;;3.70;;
2750;SDS011;1383;48.362;10.908;2023-04-25T00:33:56;4.50;;;4.00;;
2750;SDS011;1383;48.362;10.908;2023-04-25T00:36:23;3.77;;;3.13;;
2750;SDS011;1383;48.362;10.908;2023-04-25T00:38:49;6.03;;;3.40;;
2750;SDS011;1383;48.362;10.908;2023-04-25T00:41:16;4.63;;;4.00;;
2750;SDS011;1383;48.362;10.908;2023-04-25T00:43:44;4.67;;;4.37;;
2750;SDS011;1383;48.362;10.908;2023-04-25T00:46:12;5.67;;;4.00;;
2750;SDS011;1383;48.362;10.908;2023-04-25T00:48:39;5.57;;;3.73;;
2750;SDS011;1383;48.362;10.908;2023-04-25T00:51:06;4.70;;;4.13;;
2750;SDS011;1383;48.362;10.908;2023-04-25T00:53:33;4.50;;;4.10;;
2750;SDS011;1383;48.362;10.908;2023-04-25T00:56:00;6.00;;;4.10;;
2750;SDS011;1383;48.362;10.908;2023-04-25T00:58:26;4.53;;;3.77;;
2750;SDS011;1383;48.362;10.908;2023-04-25T01:00:53;4.63;;;4.10;;
2750;SDS011;1383;48.362;10.908;2023-04-25T01:03:22;5.50;;;4.33;;
2750;SDS011;1383;48.362;10.908;2023-04-25T01:05:49;4.83;;;3.83;;
2750;SDS011;1383;48.362;10.908;2023-04-25T01:08:17;4.00;;;3.43;;
2750;SDS011;1383;48.362;10.908;2023-04-25T01:10:43;5.30;;;4.00;;
2750;SDS011;1383;48.362;10.908;2023-04-25T01:13:10;4.27;;;3.87;;
2750;SDS011;1383;48.362;10.908;2023-04-25T01:15:37;4.80;;;3.97;;
2750;SDS011;1383;48.362;10.908;2023-04-25T01:18:04;4.43;;;4.10;;
2750;SDS011;1383;48.362;10.908;2023-04-25T01:20:32;4.70;;;4.30;;
2750;SDS011;1383;48.362;10.908;2023-04-25T01:23:01;3.80;;;3.10;;
2750;SDS011;1383;48.362;10.908;2023-04-25T01:25:32;5.07;;;4.40;;
2750;SDS011;1383;48.362;10.908;2023-04-25T01:27:59;4.57;;;4.07;;
2750;SDS011;1383;48.362;10.908;2023-04-25T01:30:26;4.13;;;3.80;;
2750;SDS011;1383;48.362;10.908;2023-04-25T01:32:55;7.00;;;4.23;;
2750;SDS011;1383;48.362;10.908;2023-04-25T01:35:23;5.93;;;4.60;;
2750;SDS011;1383;48.362;10.908;2023-04-25T01:37:51;7.70;;;4.67;;
2750;SDS011;1383;48.362;10.908;2023-04-25T01:40:18;4.30;;;3.70;;
2750;SDS011;1383;48.362;10.908;2023-04-25T01:42:48;4.40;;;3.90;;
2750;SDS011;1383;48.362;10.908;2023-04-25T01:45:15;4.30;;;3.90;;
2750;SDS011;1383;48.362;10.908;2023-04-25T01:47:43;5.27;;;4.77;;
2750;SDS011;1383;48.362;10.908;2023-04-25T01:50:13;4.20;;;3.90;;
2750;SDS011;1383;48.362;10.908;2023-04-25T01:52:40;5.00;;;4.57;;
2750;SDS011;1383;48.362;10.908;2023-04-25T01:55:06;5.33;;;4.20;;
2750;SDS011;1383;48.362;10.908;2023-04-25T01:57:34;6.80;;;4.80;;
2750;SDS011;1383;48.362;10.908;2023-04-25T02:00:02;4.80;;;3.40;;
2750;SDS011;1383;48.362;10.908;2023-04-25T02:02:31;6.30;;;4.70;;
2750;SDS011;1383;48.362;10.908;2023-04-25T02:04:57;4.60;;;4.20;;
2750;SDS011;1383;48.362;10.908;2023-04-25T02:07:25;5.10;;;4.37;;
2750;SDS011;1383;48.362;10.908;2023-04-25T02:09:52;4.70;;;4.10;;
2750;SDS011;1383;48.362;10.908;2023-04-25T02:12:19;5.73;;;4.47;;
2750;SDS011;1383;48.362;10.908;2023-04-25T02:14:46;8.70;;;4.10;;
2750;SDS011;1383;48.362;10.908;2023-04-25T02:17:13;4.07;;;3.77;;
2750;SDS011;1383;48.362;10.908;2023-04-25T02:19:40;3.97;;;3.63;;
2750;SDS011;1383;48.362;10.908;2023-04-25T02:22:06;5.10;;;3.70;;
2750;SDS011;1383;48.362;10.908;2023-04-25T02:24:33;4.00;;;3.70;;
2750;SDS011;1383;48.362;10.908;2023-04-25T02:27:01;3.97;;;3.50;;
2750;SDS011;1383;48.362;10.908;2023-04-25T02:29:28;4.40;;;3.70;;
2750;SDS011;1383;48.362;10.908;2023-04-25T02:31:55;4.03;;;3.63;;
2750;SDS011;1383;48.362;10.908;2023-04-25T02:34:22;5.90;;;4.67;;
2750;SDS011;1383;48.362;10.908;2023-04-25T02:36:49;4.63;;;4.13;;
2750;SDS011;1383;48.362;10.908;2023-04-25T02:39:17;4.57;;;3.77;;
2750;SDS011;1383;48.362;10.908;2023-04-25T02:41:44;5.13;;;3.73;;
2750;SDS011;1383;48.362;10.908;2023-04-25T02:44:11;4.67;;;3.80;;
2750;SDS011;1383;48.362;10.908;2023-04-25T02:46:38;4.83;;;3.97;;
2750;SDS011;1383;48.362;10.908;2023-04-25T02:49:05;5.00;;;3.87;;
2750;SDS011;1383;48.362;10.908;2023-04-25T02:51:32;3.70;;;3.40;;
2750;SDS011;1383;48.362;10.908;2023-04-25T02:53:59;5.90;;;3.70;;
2750;SDS011;1383;48.362;10.908;2023-04-25T02:56:26;4.90;;;3.93;;
2750;SDS011;1383;48.362;10.908;2023-04-25T02:58:53;6.60;;;3.77;;
2750;SDS011;1383;48.362;10.908;2023-04-25T03:01:20;6.03;;;3.83;;
2750;SDS011;1383;48.362;10.908;2023-04-25T03:03:47;4.20;;;3.80;;
2750;SDS011;1383;48.362;10.908;2023-04-25T03:06:14;6.53;;;3.60;;
2750;SDS011;1383;48.362;10.908;2023-04-25T03:08:42;3.50;;;3.17;;
2750;SDS011;1383;48.362;10.908;2023-04-25T03:11:09;3.27;;;2.97;;
2750;SDS011;1383;48.362;10.908;2023-04-25T03:13:36;5.67;;;3.23;;
2750;SDS011;1383;48.362;10.908;2023-04-25T03:16:03;3.27;;;2.70;;
2750;SDS011;1383;48.362;10.908;2023-04-25T03:18:30;4.00;;;3.47;;
2750;SDS011;1383;48.362;10.908;2023-04-25T03:20:57;3.30;;;3.00;;
2750;SDS011;1383;48.362;10.908;2023-04-25T03:23:24;3.73;;;2.90;;
2750;SDS011;1383;48.362;10.908;2023-04-25T03:25:52;6.60;;;3.20;;
2750;SDS011;1383;48.362;10.908;2023-04-25T03:28:18;5.30;;;3.27;;
2750;SDS011;1383;48.362;10.908;2023-04-25T03:30:46;3.77;;;3.10;;
2750;SDS011;1383;48.362;10.908;2023-04-25T03:33:12;4.60;;;2.90;;
2750;SDS011;1383;48.362;10.908;2023-04-25T03:35:39;4.20;;;3.30;;
2750;SDS011;1383;48.362;10.908;2023-04-25T03:38:06;6.93;;;3.67;;
2750;SDS011;1383;48.362;10.908;2023-04-25T03:40:33;4.63;;;3.30;;
2750;SDS011;1383;48.362;10.908;2023-04-25T03:43:00;7.57;;;2.93;;
2750;SDS011;1383;48.362;10.908;2023-04-25T03:45:27;4.40;;;3.10;;
2750;SDS011;1383;48.362;10.908;2023-04-25T03:47:53;6.40;;;3.60;;
2750;SDS011;1383;48.362;10.908;2023-04-25T03:50:20;6.37;;;3.30;;
2750;SDS011;1383;48.362;10.908;2023-04-25T03:52:47;4.63;;;3.03;;
2750;SDS011;1383;48.362;10.908;2023-04-25T03:55:14;5.17;;;2.73;;
2750;SDS011;1383;48.362;10.908;2023-04-25T03:57:40;3.80;;;2.90;;
2750;SDS011;1383;48.362;10.908;2023-04-25T04:00:07;3.70;;;2.63;;
2750;SDS011;1383;48.362;10.908;2023-04-25T04:02:35;3.73;;;3.10;;
2750;SDS011;1383;48.362;10.908;2023-04-25T04:05:04;3.70;;;3.03;;
2750;SDS011;1383;48.362;10.908;2023-04-25T04:07:32;5.83;;;3.00;;
2750;SDS011;1383;48.362;10.908;2023-04-25T04:09:59;5.77;;;3.40;;
2750;SDS011;1383;48.362;10.908;2023-04-25T04:12:26;5.10;;;3.07;;
2750;SDS011;1383;48.362;10.908;2023-04-25T04:14:53;3.37;;;3.07;;
2750;SDS011;1383;48.362;10.908;2023-04-25T04:17:19;3.60;;;3.23;;
2750;SDS011;1383;48.362;10.908;2023-04-25T04:19:46;5.63;;;3.17;;
2750;SDS011;1383;48.362;10.908;2023-04-25T04:22:13;4.67;;;3.47;;
2750;SDS011;1383;48.362;10.908;2023-04-25T04:24:40;8.37;;;3.10;;
2750;SDS011;1383;48.362;10.908;2023-04-25T04:27:10;4.90;;;3.50;;
2750;SDS011;1383;48.362;10.908;2023-04-25T04:29:38;3.40;;;3.10;;
2750;SDS011;1383;48.362;10.908;2023-04-25T04:32:05;3.17;;;2.90;;
2750;SDS011;1383;48.362;10.908;2023-04-25T04:34:34;2.87;;;2.63;;
2750;SDS011;1383;48.362;10.908;2023-04-25T04:37:01;3.60;;;2.93;;
2750;SDS011;1383;48.362;10.908;2023-04-25T04:39:28;5.57;;;3.30;;
2750;SDS011;1383;48.362;10.908;2023-04-25T04:41:55;5.40;;;2.60;;
2750;SDS011;1383;48.362;10.908;2023-04-25T04:44:22;4.20;;;3.00;;
2750;SDS011;1383;48.362;10.908;2023-04-25T04:46:49;4.00;;;2.80;;
2750;SDS011;1383;48.362;10.908;2023-04-25T04:49:16;4.03;;;2.97;;
2750;SDS011;1383;48.362;10.908;2023-04-25T04:51:43;3.80;;;3.50;;
2750;SDS011;1383;48.362;10.908;2023-04-25T04:54:10;4.03;;;2.13;;
2750;SDS011;1383;48.362;10.908;2023-04-25T04:56:37;3.40;;;3.17;;
2750;SDS011;1383;48.362;10.908;2023-04-25T04:59:04;3.97;;;3.20;;
2750;SDS011;1383;48.362;10.908;2023-04-25T05:01:31;2.80;;;2.50;;
2750;SDS011;1383;48.362;10.908;2023-04-25T05:03:58;6.00;;;3.10;;
2750;SDS011;1383;48.362;10.908;2023-04-25T05:06:27;3.40;;;2.63;;
2750;SDS011;1383;48.362;10.908;2023-04-25T05:08:57;2.83;;;2.63;;
2750;SDS011;1383;48.362;10.908;2023-04-25T05:11:24;3.27;;;2.70;;
2750;SDS011;1383;48.362;10.908;2023-04-25T05:13:51;8.63;;;3.00;;
2750;SDS011;1383;48.362;10.908;2023-04-25T05:16:19;3.33;;;2.90;;
2750;SDS011;1383;48.362;10.908;2023-04-25T05:18:48;4.37;;;2.93;;
2750;SDS011;1383;48.362;10.908;2023-04-25T05:21:15;5.53;;;2.90;;
2750;SDS011;1383;48.362;10.908;2023-04-25T05:23:42;5.07;;;2.47;;
2750;SDS011;1383;48.362;10.908;2023-04-25T05:26:09;3.20;;;2.90;;
2750;SDS011;1383;48.362;10.908;2023-04-25T05:28:40;6.63;;;2.53;;
2750;SDS011;1383;48.362;10.908;2023-04-25T05:31:09;3.90;;;3.50;;
2750;SDS011;1383;48.362;10.908;2023-04-25T05:33:36;4.67;;;3.10;;
2750;SDS011;1383;48.362;10.908;2023-04-25T05:36:03;4.63;;;3.03;;
2750;SDS011;1383;48.362;10.908;2023-04-25T05:38:30;3.40;;;2.70;;
2750;SDS011;1383;48.362;10.908;2023-04-25T05:41:00;3.00;;;2.57;;
2750;SDS011;1383;48.362;10.908;2023-04-25T05:43:27;2.97;;;2.70;;
2750;SDS011;1383;48.362;10.908;2023-04-25T05:45:53;9.80;;;3.70;;
2750;SDS011;1383;48.362;10.908;2023-04-25T05:48:20;4.23;;;3.70;;
2750;SDS011;1383;48.362;10.908;2023-04-25T05:50:47;3.07;;;2.77;;
2750;SDS011;1383;48.362;10.908;2023-04-25T05:53:14;3.30;;;3.00;;
2750;SDS011;1383;48.362;10.908;2023-04-25T05:55:41;3.33;;;2.73;;
2750;SDS011;1383;48.362;10.908;2023-04-25T05:58:08;3.37;;;2.90;;
2750;SDS011;1383;48.362;10.908;2023-04-25T06:00:35;3.43;;;2.73;;
2750;SDS011;1383;48.362;10.908;2023-04-25T06:03:02;3.73;;;2.70;;
2750;SDS011;1383;48.362;10.908;2023-04-25T06:05:29;6.40;;;2.93;;
2750;SDS011;1383;48.362;10.908;2023-04-25T06:07:56;3.93;;;3.57;;
2750;SDS011;1383;48.362;10.908;2023-04-25T06:10:23;5.17;;;2.70;;
2750;SDS011;1383;48.362;10.908;2023-04-25T06:12:50;6.83;;;2.80;;
2750;SDS011;1383;48.362;10.908;2023-04-25T06:15:17;5.13;;;3.00;;
2750;SDS011;1383;48.362;10.908;2023-04-25T06:17:54;4.37;;;2.43;;
2750;SDS011;1383;48.362;10.908;2023-04-25T06:20:21;4.07;;;3.10;;
2750;SDS011;1383;48.362;10.908;2023-04-25T06:22:50;5.70;;;3.27;;
2750;SDS011;1383;48.362;10.908;2023-04-25T06:25:18;3.70;;;3.40;;
2750;SDS011;1383;48.362;10.908;2023-04-25T06:27:45;3.17;;;2.87;;
2750;SDS011;1383;48.362;10.908;2023-04-25T06:30:11;4.50;;;3.00;;
2750;SDS011;1383;48.362;10.908;2023-04-25T06:32:38;3.93;;;2.17;;
2750;SDS011;1383;48.362;10.908;2023-04-25T06:35:06;3.30;;;2.63;;
2750;SDS011;1383;48.362;10.908;2023-04-25T06:37:33;2.50;;;2.30;;
2750;SDS011;1383;48.362;10.908;2023-04-25T06:39:59;4.60;;;4.20;;
2750;SDS011;1383;48.362;10.908;2023-04-25T06:42:26;4.10;;;3.40;;
2750;SDS011;1383;48.362;10.908;2023-04-25T06:44:53;2.73;;;2.40;;
2750;SDS011;1383;48.362;10.908;2023-04-25T06:47:21;4.77;;;2.90;;
2750;SDS011;1383;48.362;10.908;2023-04-25T06:49:47;2.87;;;2.60;;
2750;SDS011;1383;48.362;10.908;2023-04-25T06:52:15;4.90;;;2.50;;
2750;SDS011;1383;48.362;10.908;2023-04-25T06:54:44;2.70;;;2.50;;
2750;SDS011;1383;48.362;10.908;2023-04-25T06:57:11;3.13;;;2.73;;
2750;SDS011;1383;48.362;10.908;2023-04-25T06:59:38;3.30;;;2.77;;
2750;SDS011;1383;48.362;10.908;2023-04-25T07:02:05;4.10;;;2.80;;
2750;SDS011;1383;48.362;10.908;2023-04-25T07:04:32;2.90;;;2.10;;
2750;SDS011;1383;48.362;10.908;2023-04-25T07:06:59;3.50;;;2.50;;
2750;SDS011;1383;48.362;10.908;2023-04-25T07:09:28;3.33;;;2.10;;
2750;SDS011;1383;48.362;10.908;2023-04-25T07:11:56;2.23;;;2.03;;
2750;SDS011;1383;48.362;10.908;2023-04-25T07:14:22;7.10;;;2.10;;
2750;SDS011;1383;48.362;10.908;2023-04-25T07:16:50;2.90;;;2.10;;
2750;SDS011;1383;48.362;10.908;2023-04-25T07:19:17;4.00;;;2.40;;
2750;SDS011;1383;48.362;10.908;2023-04-25T07:21:43;2.40;;;2.20;;
2750;SDS011;1383;48.362;10.908;2023-04-25T07:24:10;3.60;;;2.07;;
2750;SDS011;1383;48.362;10.908;2023-04-25T07:26:37;2.97;;;2.30;;
2750;SDS011;1383;48.362;10.908;2023-04-25T07:29:04;3.53;;;2.17;;
2750;SDS011;1383;48.362;10.908;2023-04-25T07:31:31;2.30;;;2.10;;
2750;SDS011;1383;48.362;10.908;2023-04-25T07:33:57;4.47;;;2.53;;
2750;SDS011;1383;48.362;10.908;2023-04-25T07:36:27;7.50;;;6.60;;
2750;SDS011;1383;48.362;10.908;2023-04-25T07:38:54;2.20;;;1.93;;
2750;SDS011;1383;48.362;10.908;2023-04-25T07:41:20;4.23;;;3.83;;
2750;SDS011;1383;48.362;10.908;2023-04-25T07:43:48;5.30;;;2.90;;
2750;SDS011;1383;48.362;10.908;2023-04-25T07:46:14;2.90;;;2.23;;
2750;SDS011;1383;48.362;10.908;2023-04-25T07:48:42;3.73;;;2.13;;
2750;SDS011;1383;48.362;10.908;2023-04-25T07:51:08;2.07;;;1.93;;
2750;SDS011;1383;48.362;10.908;2023-04-25T07:53:35;3.97;;;2.00;;
2750;SDS011;1383;48.362;10.908;2023-04-25T07:56:05;2.63;;;2.33;;
2750;SDS011;1383;48.362;10.908;2023-04-25T07:58:32;3.20;;;2.00;;
2750;SDS011;1383;48.362;10.908;2023-04-25T08:00:58;2.10;;;1.90;;
2750;SDS011;1383;48.362;10.908;2023-04-25T08:03:25;4.53;;;2.40;;
2750;SDS011;1383;48.362;10.908;2023-04-25T08:05:53;3.30;;;2.40;;
2750;SDS011;1383;48.362;10.908;2023-04-25T08:08:20;3.20;;;1.83;;
2750;SDS011;1383;48.362;10.908;2023-04-25T08:10:47;2.03;;;1.87;;
2750;SDS011;1383;48.362;10.908;2023-04-25T08:13:14;2.87;;;2.10;;
2750;SDS011;1383;48.362;10.908;2023-04-25T08:15:41;3.40;;;2.03;;
2750;SDS011;1383;48.362;10.908;2023-04-25T08:18:08;2.03;;;1.80;;
2750;SDS011;1383;48.362;10.908;2023-04-25T08:20:35;3.73;;;2.40;;
2750;SDS011;1383;48.362;10.908;2023-04-25T08:23:02;2.97;;;2.77;;
2750;SDS011;1383;48.362;10.908;2023-04-25T08:25:28;2.47;;;1.80;;
2750;SDS011;1383;48.362;10.908;2023-04-25T08:27:55;3.40;;;1.87;;
2750;SDS011;1383;48.362;10.908;2023-04-25T08:30:23;2.40;;;1.50;;
2750;SDS011;1383;48.362;10.908;2023-04-25T08:32:50;3.77;;;1.80;;
2750;SDS011;1383;48.362;10.908;2023-04-25T08:35:17;3.23;;;2.13;;
2750;SDS011;1383;48.362;10.908;2023-04-25T08:37:44;2.10;;;1.90;;
2750;SDS011;1383;48.362;10.908;2023-04-25T08:40:12;2.33;;;1.80;;
2750;SDS011;1383;48.362;10.908;2023-04-25T08:42:41;3.17;;;1.83;;
2750;SDS011;1383;48.362;10.908;2023-04-25T08:45:09;2.40;;;2.13;;
2750;SDS011;1383;48.362;10.908;2023-04-25T08:47:37;3.57;;;1.90;;
2750;SDS011;1383;48.362;10.908;2023-04-25T08:50:06;1.93;;;1.83;;
2750;SDS011;1383;48.362;10.908;2023-04-25T08:52:37;1.60;;;1.50;;
2750;SDS011;1383;48.362;10.908;2023-04-25T08:55:10;2.57;;;2.03;;
2750;SDS011;1383;48.362;10.908;2023-04-25T08:57:40;4.80;;;2.33;;
2750;SDS011;1383;48.362;10.908;2023-04-25T09:00:11;5.10;;;2.83;;
2750;SDS011;1383;48.362;10.908;2023-04-25T09:02:39;2.83;;;2.33;;
2750;SDS011;1383;48.362;10.908;2023-04-25T09:07:49;2.50;;;1.77;;
2750;SDS011;1383;48.362;10.908;2023-04-25T09:10:16;3.03;;;2.13;;
2750;SDS011;1383;48.362;10.908;2023-04-25T09:12:43;2.27;;;1.97;;
2750;SDS011;1383;48.362;10.908;2023-04-25T09:15:10;2.53;;;1.77;;
2750;SDS011;1383;48.362;10.908;2023-04-25T09:17:54;9.00;;;3.07;;
2750;SDS011;1383;48.362;10.908;2023-04-25T09:20:22;3.77;;;2.80;;
2750;SDS011;1383;48.362;10.908;2023-04-25T09:22:49;3.83;;;2.23;;
2750;SDS011;1383;48.362;10.908;2023-04-25T09:25:15;4.10;;;2.67;;
2750;SDS011;1383;48.362;10.908;2023-04-25T09:27:52;3.93;;;1.70;;
2750;SDS011;1383;48.362;10.908;2023-04-25T09:30:28;3.23;;;1.90;;
2750;SDS011;1383;48.362;10.908;2023-04-25T09:32:56;1.93;;;1.70;;
2750;SDS011;1383;48.362;10.908;2023-04-25T09:35:30;4.50;;;2.83;;
2750;SDS011;1383;48.362;10.908;2023-04-25T09:38:12;2.17;;;1.80;;
2750;SDS011;1383;48.362;10.908;2023-04-25T09:40:43;2.20;;;2.00;;
2750;SDS011;1383;48.362;10.908;2023-04-25T09:43:21;2.67;;;2.40;;
2750;SDS011;1383;48.362;10.908;2023-04-25T09:45:50;2.27;;;2.07;;
2750;SDS011;1383;48.362;10.908;2023-04-25T09:48:20;7.83;;;2.03;;
2750;SDS011;1383;48.362;10.908;2023-04-25T09:51:04;5.00;;;1.50;;
2750;SDS011;1383;48.362;10.908;2023-04-25T09:53:38;3.60;;;2.80;;
2750;SDS011;1383;48.362;10.908;2023-04-25T09:56:08;2.70;;;1.87;;
2750;SDS011;1383;48.362;10.908;2023-04-25T09:58:36;5.00;;;2.77;;
2750;SDS011;1383;48.362;10.908;2023-04-25T10:01:05;2.10;;;1.90;;
2750;SDS011;1383;48.362;10.908;2023-04-25T10:03:34;1.93;;;1.60;;
2750;SDS011;1383;48.362;10.908;2023-04-25T10:06:11;3.53;;;2.03;;
2750;SDS011;1383;48.362;10.908;2023-04-25T10:08:40;2.20;;;1.40;;
2750;SDS011;1383;48.362;10.908;2023-04-25T10:11:09;1.60;;;1.50;;
2750;SDS011;1383;48.362;10.908;2023-04-25T10:13:36;2.10;;;1.60;;
2750;SDS011;1383;48.362;10.908;2023-04-25T10:16:04;2.87;;;1.60;;
2750;SDS011;1383;48.362;10.908;2023-04-25T10:18:31;2.40;;;1.63;;
2750;SDS011;1383;48.362;10.908;2023-04-25T10:21:02;3.20;;;1.50;;
2750;SDS011;1383;48.362;10.908;2023-04-25T10:23:31;3.00;;;1.87;;
2750;SDS011;1383;48.362;10.908;2023-04-25T10:26:01;1.37;;;1.27;;
2750;SDS011;1383;48.362;10.908;2023-04-25T10:28:28;1.27;;;1.17;;
2750;SDS011;1383;48.362;10.908;2023-04-25T10:31:02;1.20;;;0.87;;
2750;SDS011;1383;48.362;10.908;2023-04-25T10:33:34;2.40;;;1.87;;
2750;SDS011;1383;48.362;10.908;2023-04-25T10:36:12;1.43;;;1.30;;
2750;SDS011;1383;48.362;10.908;2023-04-25T10:38:44;2.10;;;1.43;;
2750;SDS011;1383;48.362;10.908;2023-04-25T10:41:12;1.17;;;1.07;;
2750;SDS011;1383;48.362;10.908;2023-04-25T10:43:43;2.10;;;1.63;;
2750;SDS011;1383;48.362;10.908;2023-04-25T10:48:54;1.80;;;1.20;;
2750;SDS011;1383;48.362;10.908;2023-04-25T10:51:28;3.57;;;1.20;;
2750;SDS011;1383;48.362;10.908;2023-04-25T10:54:16;2.23;;;1.10;;
2750;SDS011;1383;48.362;10.908;2023-04-25T10:56:44;1.37;;;1.20;;
2750;SDS011;1383;48.362;10.908;2023-04-25T10:59:15;2.60;;;1.17;;
2750;SDS011;1383;48.362;10.908;2023-04-25T11:01:43;2.70;;;1.63;;
2750;SDS011;1383;48.362;10.908;2023-04-25T11:04:25;1.30;;;1.20;;
2750;SDS011;1383;48.362;10.908;2023-04-25T11:09:32;1.93;;;1.73;;
2750;SDS011;1383;48.362;10.908;2023-04-25T11:12:00;3.33;;;1.70;;
2750;SDS011;1383;48.362;10.908;2023-04-25T11:14:27;2.23;;;1.43;;
2750;SDS011;1383;48.362;10.908;2023-04-25T11:16:54;1.87;;;1.67;;
2750;SDS011;1383;48.362;10.908;2023-04-25T11:19:25;1.97;;;1.80;;
2750;SDS011;1383;48.362;10.908;2023-04-25T11:21:56;2.70;;;2.17;;
2750;SDS011;1383;48.362;10.908;2023-04-25T11:24:27;2.73;;;2.00;;
2750;SDS011;1383;48.362;10.908;2023-04-25T11:26:55;4.53;;;2.20;;
2750;SDS011;1383;48.362;10.908;2023-04-25T11:29:23;3.33;;;2.00;;
2750;SDS011;1383;48.362;10.908;2023-04-25T11:31:52;3.53;;;2.00;;
2750;SDS011;1383;48.362;10.908;2023-04-25T11:34:24;2.83;;;1.90;;
2750;SDS011;1383;48.362;10.908;2023-04-25T11:36:52;2.17;;;1.20;;
2750;SDS011;1383;48.362;10.908;2023-04-25T11:39:19;2.30;;;1.30;;
2750;SDS011;1383;48.362;10.908;2023-04-25T11:41:47;2.93;;;1.90;;
2750;SDS011;1383;48.362;10.908;2023-04-25T11:44:17;3.37;;;2.00;;
2750;SDS011;1383;48.362;10.908;2023-04-25T11:46:45;2.30;;;2.10;;
2750;SDS011;1383;48.362;10.908;2023-04-25T11:49:13;3.20;;;2.00;;
2750;SDS011;1383;48.362;10.908;2023-04-25T11:51:41;4.20;;;2.30;;
2750;SDS011;1383;48.362;10.908;2023-04-25T11:54:09;3.37;;;2.50;;
2750;SDS011;1383;48.362;10.908;2023-04-25T11:56:40;2.67;;;1.80;;
2750;SDS011;1383;48.362;10.908;2023-04-25T11:59:11;4.80;;;2.70;;
2750;SDS011;1383;48.362;10.908;2023-04-25T12:01:40;1.80;;;1.70;;
2750;SDS011;1383;48.362;10.908;2023-04-25T12:04:14;1.70;;;1.60;;
2750;SDS011;1383;48.362;10.908;2023-04-25T12:06:52;2.33;;;1.87;;
2750;SDS011;1383;48.362;10.908;2023-04-25T12:09:20;2.20;;;1.83;;
2750;SDS011;1383;48.362;10.908;2023-04-25T12:11:54;1.90;;;1.80;;
2750;SDS011;1383;48.362;10.908;2023-04-25T12:14:23;3.70;;;2.50;;
2750;SDS011;1383;48.362;10.908;2023-04-25T12:16:51;2.13;;;1.93;;
2750;SDS011;1383;48.362;10.908;2023-04-25T12:19:18;2.83;;;2.53;;
2750;SDS011;1383;48.362;10.908;2023-04-25T12:21:46;2.93;;;2.33;;
2750;SDS011;1383;48.362;10.908;2023-04-25T12:24:24;2.47;;;2.27;;
2750;SDS011;1383;48.362;10.908;2023-04-25T12:29:30;4.67;;;3.40;;
2750;SDS011;1383;48.362;10.908;2023-04-25T12:32:13;2.20;;;2.00;;
2750;SDS011;1383;48.362;10.908;2023-04-25T12:34:40;2.30;;;2.10;;
2750;SDS011;1383;48.362;10.908;2023-04-25T12:37:07;2.30;;;2.00;;
2750;SDS011;1383;48.362;10.908;2023-04-25T12:39:33;1.50;;;1.40;;
2750;SDS011;1383;48.362;10.908;2023-04-25T12:42:00;1.70;;;1.60;;
2750;SDS011;1383;48.362;10.908;2023-04-25T12:44:27;5.50;;;2.00;;
2750;SDS011;1383;48.362;10.908;2023-04-25T12:46:54;2.20;;;1.70;;
2750;SDS011;1383;48.362;10.908;2023-04-25T12:49:21;3.73;;;1.53;;
2750;SDS011;1383;48.362;10.908;2023-04-25T12:51:48;2.00;;;1.80;;
2750;SDS011;1383;48.362;10.908;2023-04-25T12:54:15;1.83;;;1.37;;
2750;SDS011;1383;48.362;10.908;2023-04-25T12:56:42;1.10;;;1.00;;
2750;SDS011;1383;48.362;10.908;2023-04-25T12:59:09;1.60;;;1.33;;
2750;SDS011;1383;48.362;10.908;2023-04-25T13:01:36;1.83;;;1.07;;
2750;SDS011;1383;48.362;10.908;2023-04-25T13:04:03;1.10;;;0.90;;
2750;SDS011;1383;48.362;10.908;2023-04-25T13:06:31;1.00;;;0.90;;
2750;SDS011;1383;48.362;10.908;2023-04-25T13:09:15;1.10;;;1.00;;
2750;SDS011;1383;48.362;10.908;2023-04-25T13:11:42;1.20;;;1.10;;
2750;SDS011;1383;48.362;10.908;2023-04-25T13:14:08;1.67;;;1.10;;
2750;SDS011;1383;48.362;10.908;2023-04-25T13:16:35;3.57;;;1.30;;
2750;SDS011;1383;48.362;10.908;2023-04-25T13:19:02;1.60;;;1.17;;
2750;SDS011;1383;48.362;10.908;2023-04-25T13:21:30;1.10;;;1.00;;
2750;SDS011;1383;48.362;10.908;2023-04-25T13:23:59;1.40;;;1.30;;
2750;SDS011;1383;48.362;10.908;2023-04-25T13:26:26;1.57;;;1.40;;
2750;SDS011;1383;48.362;10.908;2023-04-25T13:28:53;1.70;;;1.60;;
2750;SDS011;1383;48.362;10.908;2023-04-25T13:31:20;2.43;;;2.00;;
2750;SDS011;1383;48.362;10.908;2023-04-25T13:33:47;2.30;;;2.10;;
2750;SDS011;1383;48.362;10.908;2023-04-25T13:36:15;2.73;;;2.23;;
2750;SDS011;1383;48.362;10.908;2023-04-25T13:38:42;3.00;;;2.20;;
2750;SDS011;1383;48.362;10.908;2023-04-25T13:41:10;2.83;;;1.90;;
2750;SDS011;1383;48.362;10.908;2023-04-25T13:43:41;3.30;;;2.60;;
2750;SDS011;1383;48.362;10.908;2023-04-25T13:46:08;3.37;;;2.80;;
2750;SDS011;1383;48.362;10.908;2023-04-25T13:48:56;4.30;;;2.57;;
2750;SDS011;1383;48.362;10.908;2023-04-25T13:51:31;2.80;;;2.60;;
2750;SDS011;1383;48.362;10.908;2023-04-25T13:53:58;2.53;;;2.33;;
2750;SDS011;1383;48.362;10.908;2023-04-25T13:56:25;2.30;;;2.10;;
2750;SDS011;1383;48.362;10.908;2023-04-25T13:58:52;2.83;;;2.50;;
2750;SDS011;1383;48.362;10.908;2023-04-25T14:01:19;2.57;;;2.37;;
2750;SDS011;1383;48.362;10.908;2023-04-25T14:03:47;1.77;;;1.67;;
2750;SDS011;1383;48.362;10.908;2023-04-25T14:06:14;2.33;;;2.10;;
2750;SDS011;1383;48.362;10.908;2023-04-25T14:08:47;3.30;;;3.00;;
2750;SDS011;1383;48.362;10.908;2023-04-25T14:11:14;2.20;;;2.00;;
2750;SDS011;1383;48.362;10.908;2023-04-25T14:13:41;3.00;;;2.80;;
2750;SDS011;1383;48.362;10.908;2023-04-25T14:16:07;2.40;;;2.20;;
2750;SDS011;1383;48.362;10.908;2023-04-25T14:18:34;1.87;;;1.77;;
2750;SDS011;1383;48.362;10.908;2023-04-25T14:21:01;3.40;;;2.93;;
2750;SDS011;1383;48.362;10.908;2023-04-25T14:23:28;3.77;;;2.50;;
2750;SDS011;1383;48.362;10.908;2023-04-25T14:25:55;2.80;;;2.50;;
2750;SDS011;1383;48.362;10.908;2023-04-25T14:28:22;2.60;;;2.27;;
2750;SDS011;1383;48.362;10.908;2023-04-25T14:30:49;2.87;;;2.67;;
2750;SDS011;1383;48.362;10.908;2023-04-25T14:33:16;3.07;;;2.87;;
2750;SDS011;1383;48.362;10.908;2023-04-25T14:35:43;2.67;;;2.47;;
2750;SDS011;1383;48.362;10.908;2023-04-25T14:38:10;2.73;;;2.53;;
2750;SDS011;1383;48.362;10.908;2023-04-25T14:40:36;3.10;;;2.80;;
2750;SDS011;1383;48.362;10.908;2023-04-25T14:43:04;2.43;;;2.23;;
2750;SDS011;1383;48.362;10.908;2023-04-25T14:45:30;2.70;;;2.50;;
2750;SDS011;1383;48.362;10.908;2023-04-25T14:47:59;3.07;;;2.87;;
2750;SDS011;1383;48.362;10.908;2023-04-25T14:50:26;3.13;;;2.83;;
2750;SDS011;1383;48.362;10.908;2023-04-25T14:52:53;4.37;;;3.33;;
2750;SDS011;1383;48.362;10.908;2023-04-25T14:55:24;4.27;;;2.90;;
2750;SDS011;1383;48.362;10.908;2023-04-25T14:57:52;4.20;;;3.30;;
2750;SDS011;1383;48.362;10.908;2023-04-25T15:00:23;2.70;;;2.50;;
2750;SDS011;1383;48.362;10.908;2023-04-25T15:02:51;3.20;;;3.00;;
2750;SDS011;1383;48.362;10.908;2023-04-25T15:05:18;3.77;;;3.23;;
2750;SDS011;1383;48.362;10.908;2023-04-25T15:07:46;3.40;;;2.90;;
2750;SDS011;1383;48.362;10.908;2023-04-25T15:10:14;4.03;;;2.90;;
2750;SDS011;1383;48.362;10.908;2023-04-25T15:12:42;6.80;;;4.10;;
2750;SDS011;1383;48.362;10.908;2023-04-25T15:15:12;4.10;;;3.20;;
2750;SDS011;1383;48.362;10.908;2023-04-25T15:17:50;4.33;;;3.07;;